VIAR/ATQ METAR and TAF weather

Enter ICAO airport designator
Station Type Date Time Source
VIAR METAR 2023/02/05 14:00 UTC NOAA

VIAR 051400Z VRB02KT 4500 HZ SCT040 SCT100 18/13 Q1011 NOSIG


Station Type Date Time Source
VIAR Decoded METAR 2023/02/05 14:00 UTC NOAA

Amritsar, India (VIAR) 31-38N 074-52E 234M
Feb 05, 2023 - 09:00 AM EST / 2023.02.05 1400 UTC
Wind: Variable at 2 MPH (2 KT):0
Visibility: 2 mile(s):0
Sky conditions: partly cloudy
Weather: haze
Temperature: 64 F (18 C)
Dew Point: 55 F (13 C)
Relative Humidity: 72%
Pressure (altimeter): 29.85 in. Hg (1011 hPa)
ob: VIAR 051400Z VRB02KT 4500 HZ SCT040 SCT100 18/13 Q1011 NOSIG
cycle: 14

Station Type Date Time Source
VIAR TAF 2023/02/05 12:42 UTC NOAA

VIAR 051100Z 0512/0618 32006KT 4000 HZ SCT040 SCT100
BECMG 0518/0520 07005KT 3000 BR
BECMG 0600/0602 1200 BR
BECMG 0604/0606 05008KT 3500 HZ
BECMG 0608/0610 5000 HZ SCT090
BECMG 0615/0617 VRB02KT 3000 HZ BR

Example: see airport list